Terminal Aerodrome Forecast
Issued by NWS

Home | Current Version | Previous Version | Text Only | Print | Product List | Glossary On
Versions: 1 2 3 4 5 6 7 8 9 10 11 12 13 14 15 16 17 18 19 20 21 22 23 24 25 26 27 28 29 30 31
000
FTUS45 KGJT 220847 AAA
TAFASE
TAF AMD
KASE 220847Z 2209/2306 14005KT P6SM -RA VCSH SCT010 BKN025
      TEMPO 2209/2212 4SM SHRA BR BKN008 BKN015 OVC025
     FM221200 VRB03KT 6SM -SHRA BR SCT010 SCT020 BKN035
      TEMPO 2212/2214 4SM -SHRA BR SCT008 BKN015
     FM221400 19005KT P6SM VCSH SCT040 BKN070
     FM221900 36005KT P6SM VCTS SCT080CB BKN150
     FM230200 20004KT P6SM SCT080 BKN100=

USA.gov is the U.S. government's official web portal to all federal, state and local government web resources and services.